Time;durP1;ratioP1;P1;durP2;ratioP2;P2;SDS_P1;SDS_P2;PMS_P1;PMS_P2;Temp;Humidity;BMP_temperature;BMP_pressure;BME280_temperature;BME280_humidity;BME280_pressure;Samples;Min_cycle;Max_cycle;Signal;HPM_P1;HPM_P2
2021/08/09 00:01:54;;;;;;;3.30;1.40;;;;;;;15.04;82.92;99989.25;5036214;28;20057;-66
2021/08/09 00:04:20;;;;;;;4.53;1.70;;;;;;;15.12;82.62;99998.53;5036345;28;20447;-66
2021/08/09 00:06:47;;;;;;;6.10;1.95;;;;;;;15.11;82.70;100005.75;5018740;28;20588;-67
2021/08/09 00:09:14;;;;;;;7.97;2.10;;;;;;;15.09;83.03;100004.16;5036155;28;20076;-65
2021/08/09 00:11:40;;;;;;;4.38;1.42;;;;;;;15.06;83.06;100005.28;5036131;28;20112;-67
2021/08/09 00:14:07;;;;;;;7.15;1.83;;;;;;;15.05;82.85;100003.56;5018693;28;20053;-66
2021/08/09 00:16:33;;;;;;;3.50;2.38;;;;;;;14.96;83.45;100004.31;5036278;28;20104;-67
2021/08/09 00:19:00;;;;;;;4.68;1.70;;;;;;;14.98;83.76;100013.97;5035878;28;20115;-67
2021/08/09 00:21:27;;;;;;;7.13;1.67;;;;;;;14.97;83.41;100006.88;5044737;28;20049;-67
2021/08/09 00:23:53;;;;;;;5.82;2.10;;;;;;;14.94;83.66;100007.97;5056012;28;20103;-67
2021/08/09 00:26:22;;;;;;;4.75;1.58;;;;;;;14.92;83.98;100009.09;5055817;28;20332;-67
2021/08/09 00:28:49;;;;;;;5.20;1.60;;;;;;;14.90;84.14;100011.06;5055585;28;20111;-66
2021/08/09 00:31:15;;;;;;;5.20;1.88;;;;;;;14.92;84.27;100011.78;5021833;28;20076;-67
2021/08/09 00:33:42;;;;;;;4.45;1.77;;;;;;;14.89;83.93;100014.72;5055562;28;20057;-66
2021/08/09 00:36:09;;;;;;;5.20;1.90;;;;;;;14.89;84.11;100014.72;5055675;28;20054;-67
2021/08/09 00:38:35;;;;;;;6.45;2.00;;;;;;;14.89;84.31;100012.03;5055515;28;20057;-66
2021/08/09 00:41:02;;;;;;;5.15;1.55;;;;;;;14.89;85.22;100012.03;5038222;28;20166;-67
2021/08/09 00:43:28;;;;;;;5.05;1.55;;;;;;;14.93;84.55;100010.81;5055499;28;20057;-66
2021/08/09 00:45:57;;;;;;;10.45;2.20;;;;;;;14.88;84.74;100002.28;5038845;28;20057;-67
2021/08/09 00:48:25;;;;;;;6.97;1.70;;;;;;;15.06;83.79;100014.22;5035588;28;20336;-66
2021/08/09 00:50:52;;;;;;;4.05;1.70;;;;;;;15.05;84.40;100009.78;5035537;28;20053;-66
2021/08/09 00:53:19;;;;;;;6.72;2.10;;;;;;;15.12;83.62;100003.91;5035616;28;20126;-66
2021/08/09 00:55:46;;;;;;;3.22;1.58;;;;;;;15.13;83.76;100013.66;5035360;28;20061;-66
2021/08/09 00:58:13;;;;;;;7.93;1.98;;;;;;;15.11;83.80;100002.19;5035294;28;20439;-66
2021/08/09 01:00:40;;;;;;;3.60;1.52;;;;;;;15.16;83.12;99998.13;5035622;28;20045;-66
2021/08/09 01:03:06;;;;;;;7.88;1.60;;;;;;;15.10;83.27;99985.25;5017832;28;20407;-67
2021/08/09 01:05:33;;;;;;;4.72;1.70;;;;;;;15.18;83.36;99992.66;5018059;28;20049;-67
2021/08/09 01:08:12;;;;;;;7.13;1.88;;;;;;;15.19;83.09;99991.66;5017880;28;20053;-68
2021/08/09 01:11:03;;;;;;;6.32;1.70;;;;;;;15.16;83.63;99997.31;5035203;28;20045;-67
2021/08/09 01:14:12;;;;;;;3.80;1.50;;;;;;;15.17;83.78;100002.56;5035091;28;20079;-67
2021/08/09 01:16:40;;;;;;;5.38;1.75;;;;;;;15.19;83.76;99999.72;5018036;28;20049;-67
2021/08/09 01:19:38;;;;;;;6.22;1.80;;;;;;;15.21;83.28;100003.16;5035299;28;20045;-68
2021/08/09 01:22:20;;;;;;;6.30;1.75;;;;;;;15.17;84.10;100001.69;5017756;28;20061;-66
2021/08/09 01:25:07;;;;;;;10.30;2.10;;;;;;;15.27;83.38;100005.34;5035284;28;20076;-66
2021/08/09 01:27:39;;;;;;;5.75;1.63;;;;;;;15.19;84.05;100005.09;5035313;28;20104;-67
2021/08/09 01:30:09;;;;;;;4.63;1.80;;;;;;;15.16;84.05;100006.19;5034987;28;20125;-67
2021/08/09 01:32:41;;;;;;;5.95;2.13;;;;;;;15.20;83.67;100010.34;5034833;28;20474;-67
2021/08/09 01:35:08;;;;;;;6.85;1.70;;;;;;;15.15;83.70;99999.13;5035183;28;20049;-66
2021/08/09 01:37:38;;;;;;;5.28;1.83;;;;;;;15.21;83.22;100009.38;5001604;28;20045;-66
2021/08/09 01:40:09;;;;;;;4.55;1.83;;;;;;;15.15;83.55;100004.50;5035170;28;20516;-67
2021/08/09 01:42:37;;;;;;;7.60;1.85;;;;;;;15.12;83.21;100006.59;5035223;28;20061;-67
2021/08/09 01:45:06;;;;;;;5.43;1.75;;;;;;;15.09;83.99;100012.22;5044531;28;20517;-66
2021/08/09 01:47:35;;;;;;;5.43;1.95;;;;;;;15.08;84.35;100016.75;5055126;28;20129;-66
2021/08/09 01:50:07;;;;;;;3.78;1.65;;;;;;;15.18;83.66;100017.72;5054994;28;20339;-67
2021/08/09 01:52:35;;;;;;;5.10;1.50;;;;;;;15.18;83.19;100016.84;5037911;28;20056;-66
2021/08/09 01:55:03;;;;;;;3.72;1.60;;;;;;;15.24;83.41;100018.19;5054476;28;20102;-67
2021/08/09 01:57:30;;;;;;;8.95;2.38;;;;;;;15.16;83.68;100022.34;5037331;28;20045;-67
2021/08/09 01:59:56;;;;;;;7.50;2.03;;;;;;;15.12;83.93;100023.59;5037183;28;20056;-66
2021/08/09 02:02:30;;;;;;;3.00;1.45;;;;;;;15.11;84.13;100029.09;5054942;28;20048;-67
2021/08/09 02:05:04;;;;;;;3.65;1.73;;;;;;;15.11;84.62;100027.25;5054791;28;20106;-67
2021/08/09 02:07:37;;;;;;;4.47;1.75;;;;;;;15.10;84.27;100024.69;5054547;28;20102;-67
2021/08/09 02:10:07;;;;;;;5.50;1.75;;;;;;;15.11;84.21;100029.94;5054434;28;20501;-68
2021/08/09 02:12:53;;;;;;;3.10;1.45;;;;;;;15.05;84.43;100019.69;5054600;28;20439;-66
2021/08/09 02:15:43;;;;;;;5.72;2.10;;;;;;;15.06;84.54;100029.47;5054620;28;20057;-68
2021/08/09 02:18:27;;;;;;;4.70;1.63;;;;;;;15.01;84.25;100019.09;5044185;28;20080;-68
2021/08/09 02:21:11;;;;;;;4.97;2.15;;;;;;;15.01;84.53;100028.97;5050339;28;20049;-67
2021/08/09 02:23:45;;;;;;;5.43;2.17;;;;;;;15.00;84.72;100025.47;5017659;28;20054;-67
2021/08/09 02:26:16;;;;;;;6.80;2.20;;;;;;;14.98;84.34;100024.72;5034529;28;20116;-66
2021/08/09 02:28:46;;;;;;;5.70;1.80;;;;;;;14.97;85.17;100027.53;5034614;28;20050;-67
2021/08/09 02:31:14;;;;;;;4.63;2.03;;;;;;;14.96;85.26;100017.75;5017364;28;20103;-67
2021/08/09 02:33:42;;;;;;;6.65;2.10;;;;;;;14.95;85.70;100016.91;5017202;28;20061;-67
2021/08/09 02:36:10;;;;;;;10.93;2.40;;;;;;;14.98;85.50;100019.34;5017318;28;20049;-66
2021/08/09 02:38:37;;;;;;;5.80;1.60;;;;;;;14.99;84.52;100020.19;5017504;28;20053;-67
2021/08/09 02:41:05;;;;;;;6.95;2.22;;;;;;;14.86;85.01;100009.63;5034543;28;20111;-67
2021/08/09 02:43:32;;;;;;;5.82;2.03;;;;;;;14.97;84.84;100032.91;4986105;28;20056;-66
2021/08/09 02:46:00;;;;;;;7.65;1.90;;;;;;;14.95;84.75;100022.28;5054929;28;20386;-68
2021/08/09 02:48:27;;;;;;;5.20;1.95;;;;;;;14.94;84.59;100018.72;5058010;28;20106;-67
2021/08/09 02:50:54;;;;;;;5.25;1.70;;;;;;;14.94;84.73;100013.34;5057809;28;20351;-68
2021/08/09 02:53:22;;;;;;;8.15;1.77;;;;;;;14.89;85.74;100012.03;5057726;28;20049;-67
2021/08/09 02:55:56;;;;;;;5.07;1.60;;;;;;;14.94;84.61;100007.16;5057479;28;20079;-67
2021/08/09 02:58:22;;;;;;;6.55;1.77;;;;;;;14.89;84.53;100007.53;5057645;28;20427;-68
2021/08/09 03:00:53;;;;;;;7.38;1.65;;;;;;;14.96;84.51;100013.25;5039841;28;20045;-67
2021/08/09 03:03:27;;;;;;;8.52;2.17;;;;;;;15.05;83.92;100008.94;5057818;28;20140;-66
2021/08/09 03:05:57;;;;;;;4.60;1.67;;;;;;;15.02;83.94;100010.06;5057708;28;20044;-67
2021/08/09 03:08:26;;;;;;;4.22;1.60;;;;;;;15.05;83.60;100014.31;5040013;28;20427;-68
2021/08/09 03:10:54;;;;;;;5.57;1.70;;;;;;;15.02;83.81;100012.75;5057229;28;20053;-66
2021/08/09 03:13:21;;;;;;;4.97;1.63;;;;;;;14.99;83.55;100010.28;5039651;28;20103;-67
2021/08/09 03:15:50;;;;;;;3.50;1.45;;;;;;;14.96;85.19;100015.94;5039940;28;20065;-67
2021/08/09 03:18:17;;;;;;;4.15;1.85;;;;;;;14.93;86.37;100016.19;5039858;28;20053;-66
2021/08/09 03:20:44;;;;;;;3.53;1.73;;;;;;;14.89;86.03;100014.72;5054231;28;20049;-66
2021/08/09 03:23:11;;;;;;;7.88;2.00;;;;;;;14.89;85.96;100015.59;5037169;28;20378;-67
2021/08/09 03:25:38;;;;;;;5.97;1.60;;;;;;;14.86;86.53;100029.25;5019399;28;20053;-66
2021/08/09 03:28:06;;;;;;;9.55;2.00;;;;;;;14.84;86.65;100027.69;5037014;28;20386;-66
2021/08/09 03:30:33;;;;;;;6.40;1.73;;;;;;;14.88;86.87;100034.53;5037197;28;20115;-66
2021/08/09 03:33:00;;;;;;;5.53;1.77;;;;;;;14.83;86.90;100028.66;5019803;28;20122;-67
2021/08/09 03:35:27;;;;;;;3.60;1.67;;;;;;;14.82;86.63;100021.59;5019610;28;20081;-68
2021/08/09 03:37:53;;;;;;;5.35;1.63;;;;;;;14.83;86.86;100021.47;5037140;28;20054;-67
2021/08/09 03:40:20;;;;;;;4.32;1.58;;;;;;;14.84;87.28;100023.16;5036790;28;20446;-67
2021/08/09 03:42:48;;;;;;;4.13;1.50;;;;;;;14.79;88.26;100028.91;5035775;28;20056;-66
2021/08/09 03:45:16;;;;;;;3.97;1.50;;;;;;;14.79;88.58;100025.38;5048052;28;20059;-67
2021/08/09 03:47:42;;;;;;;5.07;1.80;;;;;;;14.78;87.72;100024.50;5039180;28;20501;-66
2021/08/09 03:50:09;;;;;;;5.43;1.58;;;;;;;14.71;87.83;100019.75;5039104;28;20082;-67
2021/08/09 03:52:36;;;;;;;3.33;1.70;;;;;;;14.70;88.72;100021.56;5056602;28;20041;-66
2021/08/09 03:55:02;;;;;;;6.25;1.80;;;;;;;14.53;88.80;100004.13;5055862;28;20106;-66
2021/08/09 03:57:29;;;;;;;6.53;2.08;;;;;;;14.65;88.85;100024.63;5056812;28;20052;-66
2021/08/09 03:59:56;;;;;;;5.60;1.98;;;;;;;14.61;88.71;100016.94;5056372;28;20198;-67
2021/08/09 04:02:29;;;;;;;3.53;1.70;;;;;;;14.59;89.18;100014.38;5056290;28;20106;-66
2021/08/09 04:05:10;;;;;;;4.65;1.42;;;;;;;14.64;88.98;100019.38;5040549;28;20053;-67
2021/08/09 04:07:38;;;;;;;6.47;1.65;;;;;;;14.66;88.30;100015.56;5056256;28;20049;-67
2021/08/09 04:10:06;;;;;;;4.38;1.50;;;;;;;14.62;88.96;100019.50;5038659;28;20064;-66
2021/08/09 04:12:33;;;;;;;4.40;2.47;;;;;;;14.61;89.38;100023.16;5056641;28;20045;-67
2021/08/09 04:15:00;;;;;;;6.20;1.63;;;;;;;14.61;89.26;100025.81;5056885;28;20129;-66
2021/08/09 04:17:27;;;;;;;8.90;2.40;;;;;;;14.70;87.60;100024.25;5039314;28;20049;-66
2021/08/09 04:19:54;;;;;;;6.68;1.70;;;;;;;14.74;86.96;100023.06;5039405;28;20512;-67
2021/08/09 04:22:20;;;;;;;5.70;2.45;;;;;;;14.78;87.35;100034.41;5040560;28;20045;-67
2021/08/09 04:24:47;;;;;;;4.53;1.75;;;;;;;14.78;86.98;100037.09;5018689;28;20049;-68
2021/08/09 04:27:14;;;;;;;4.43;1.55;;;;;;;14.83;86.56;100037.59;5035890;28;20054;-69
2021/08/09 04:29:40;;;;;;;8.25;1.70;;;;;;;14.85;86.59;100038.31;5036067;28;20053;-67
2021/08/09 04:32:17;;;;;;;3.88;1.42;;;;;;;14.86;85.94;100031.94;5035719;28;20046;-67
2021/08/09 04:34:44;;;;;;;6.30;1.60;;;;;;;14.94;84.84;100026.78;5035879;28;20057;-67
2021/08/09 04:37:11;;;;;;;4.40;1.60;;;;;;;14.90;84.78;100022.66;5035696;28;20052;-68
2021/08/09 04:39:38;;;;;;;6.43;1.50;;;;;;;14.95;84.59;100027.66;5036037;28;20120;-67
2021/08/09 04:42:05;;;;;;;4.63;1.35;;;;;;;14.99;84.03;100022.88;5035750;28;20095;-67
2021/08/09 04:44:38;;;;;;;6.78;1.67;;;;;;;14.99;84.35;100018.34;5042081;28;20049;-67
2021/08/09 04:47:05;;;;;;;4.90;1.42;;;;;;;14.96;85.28;100026.69;5038127;28;20060;-67
2021/08/09 04:49:32;;;;;;;6.90;1.40;;;;;;;14.97;84.09;100024.84;5055455;28;20517;-68
2021/08/09 04:51:58;;;;;;;3.75;1.60;;;;;;;14.95;84.59;100019.59;5055581;28;20102;-68
2021/08/09 04:54:25;;;;;;;6.50;1.80;;;;;;;14.96;84.64;100020.44;5055621;28;20048;-68
2021/08/09 04:56:52;;;;;;;5.32;1.30;;;;;;;14.98;84.57;100026.56;5055336;28;20324;-67
2021/08/09 04:59:18;;;;;;;6.35;1.58;;;;;;;14.98;84.64;100023.88;5021805;28;20057;-67
2021/08/09 05:01:45;;;;;;;4.50;1.65;;;;;;;15.02;84.41;100028.00;5053726;28;20052;-68
2021/08/09 05:04:12;;;;;;;4.40;1.52;;;;;;;15.06;83.66;100026.78;5055206;28;20132;-66
2021/08/09 05:06:38;;;;;;;6.43;1.48;;;;;;;15.09;83.33;100031.06;5042854;28;20053;-68
2021/08/09 05:09:05;;;;;;;9.73;2.63;;;;;;;15.02;84.57;100028.00;5046914;28;20090;-67
2021/08/09 05:11:32;;;;;;;3.53;2.00;;;;;;;15.00;83.94;100030.84;5038660;28;20495;-67
2021/08/09 05:13:58;;;;;;;4.65;1.50;;;;;;;15.03;83.25;100027.88;5035423;28;20049;-68
2021/08/09 05:16:28;;;;;;;4.15;1.40;;;;;;;15.14;82.09;100021.63;5035425;28;20057;-68
2021/08/09 05:19:01;;;;;;;5.63;2.17;;;;;;;15.18;82.15;100025.78;5042391;28;20057;-67
2021/08/09 05:21:28;;;;;;;4.10;1.70;;;;;;;15.06;83.02;100021.41;5027528;28;20049;-68
2021/08/09 05:23:54;;;;;;;5.00;1.45;;;;;;;15.10;82.67;100030.06;5037592;28;20055;-67
2021/08/09 05:26:21;;;;;;;5.47;1.80;;;;;;;15.03;82.49;100016.28;5054776;28;20369;-68
2021/08/09 05:28:47;;;;;;;4.15;1.45;;;;;;;15.14;82.76;100035.06;5055263;28;20445;-68
2021/08/09 05:31:14;;;;;;;5.60;1.98;;;;;;;15.10;83.65;100041.69;5054748;28;20045;-67
2021/08/09 05:33:42;;;;;;;4.97;1.75;;;;;;;15.13;82.85;100032.50;5037599;28;20057;-68
2021/08/09 05:36:09;;;;;;;2.20;1.33;;;;;;;15.12;83.40;100037.03;5046586;28;20126;-68
2021/08/09 05:38:37;;;;;;;5.35;1.88;;;;;;;15.16;83.05;100048.38;5034936;28;20103;-67
2021/08/09 05:41:05;;;;;;;7.07;1.90;;;;;;;15.18;82.64;100046.41;5034921;28;20403;-68
2021/08/09 05:43:32;;;;;;;4.18;1.60;;;;;;;15.15;83.35;100052.06;5034749;28;20427;-67
2021/08/09 05:45:58;;;;;;;6.68;1.50;;;;;;;15.12;84.00;100055.84;5051729;28;20114;-67
2021/08/09 05:48:26;;;;;;;4.35;1.60;;;;;;;15.13;83.46;100059.38;5054917;28;20049;-67
2021/08/09 05:50:53;;;;;;;5.38;1.77;;;;;;;15.12;83.11;100049.59;5055012;28;20130;-69
2021/08/09 05:53:19;;;;;;;4.28;1.38;;;;;;;15.25;82.62;100061.06;5037138;28;20342;-68
2021/08/09 05:55:46;;;;;;;6.97;1.73;;;;;;;15.25;82.63;100057.53;5054974;28;20052;-67
2021/08/09 05:58:13;;;;;;;5.88;1.60;;;;;;;15.24;82.39;100066.59;5054531;28;20044;-68
2021/08/09 06:00:39;;;;;;;6.50;1.85;;;;;;;15.21;83.08;100062.31;5053721;28;20397;-67
2021/08/09 06:03:06;;;;;;;3.13;1.27;;;;;;;15.12;82.34;100036.16;5053639;28;20119;-68
2021/08/09 06:05:32;;;;;;;4.35;1.70;;;;;;;15.23;82.84;100057.66;5054100;28;20110;-67
2021/08/09 06:07:59;;;;;;;6.60;1.58;;;;;;;15.27;82.32;100060.94;5054177;28;20091;-69
2021/08/09 06:10:26;;;;;;;3.00;1.30;;;;;;;15.39;81.87;100059.06;5036319;28;20505;-68
2021/08/09 06:12:52;;;;;;;6.38;1.35;;;;;;;15.44;81.65;100056.84;5036667;28;20111;-68
2021/08/09 06:15:19;;;;;;;8.90;1.60;;;;;;;15.48;81.81;100059.13;5042754;28;20054;-68
2021/08/09 06:17:45;;;;;;;4.97;1.40;;;;;;;15.49;81.92;100057.31;5009899;28;20120;-68
2021/08/09 06:20:13;;;;;;;6.25;1.83;;;;;;;15.51;81.43;100067.97;5058249;28;20068;-68
2021/08/09 06:22:40;;;;;;;3.13;1.40;;;;;;;15.50;81.62;100066.22;5057159;28;20106;-72
2021/08/09 06:25:07;;;;;;;6.22;1.55;;;;;;;15.44;82.01;100059.53;5057765;28;20053;-71
2021/08/09 06:27:34;;;;;;;5.47;1.58;;;;;;;15.47;81.09;100051.19;5041620;28;20049;-72
2021/08/09 06:30:01;;;;;;;6.70;1.60;;;;;;;15.53;81.19;100056.06;5055454;28;20053;-70
2021/08/09 06:32:27;;;;;;;4.05;1.30;;;;;;;15.53;82.31;100071.38;5061260;28;20045;-72
2021/08/09 06:34:54;;;;;;;7.35;1.92;;;;;;;15.52;82.26;100070.50;5063673;28;20078;-71
2021/08/09 06:37:20;;;;;;;5.75;1.92;;;;;;;15.55;82.21;100070.25;5015699;28;20045;-68
2021/08/09 06:39:47;;;;;;;3.38;1.52;;;;;;;15.68;81.10;100069.22;5058626;28;20044;-68
2021/08/09 06:42:14;;;;;;;6.45;1.63;;;;;;;15.72;81.66;100073.34;5043222;28;20052;-68
2021/08/09 06:44:41;;;;;;;2.97;1.38;;;;;;;15.73;80.61;100057.09;5058159;28;20103;-68
2021/08/09 06:47:08;;;;;;;4.80;1.48;;;;;;;15.82;81.26;100066.22;5057679;28;20099;-68
2021/08/09 06:49:34;;;;;;;5.88;1.75;;;;;;;15.80;80.60;100059.25;5060924;28;20108;-68
2021/08/09 06:52:01;;;;;;;7.10;2.03;;;;;;;15.97;80.28;100079.38;5064360;28;20052;-70
2021/08/09 06:54:28;;;;;;;5.65;2.03;;;;;;;16.00;79.90;100079.13;5039324;28;20044;-74
2021/08/09 06:56:54;;;;;;;5.93;1.90;;;;;;;15.99;80.13;100077.41;5036339;28;20045;-74
2021/08/09 06:59:21;;;;;;;6.65;1.60;;;;;;;16.01;80.66;100081.69;5070243;28;20044;-72
2021/08/09 07:01:48;;;;;;;5.40;1.58;;;;;;;16.00;80.38;100088.06;5069754;28;20045;-70
2021/08/09 07:04:14;;;;;;;7.55;1.55;;;;;;;16.07;80.38;100077.59;5056642;28;20053;-73
2021/08/09 07:06:41;;;;;;;4.45;1.60;;;;;;;16.14;79.03;100076.09;5057520;28;20106;-68
2021/08/09 07:09:08;;;;;;;7.00;2.00;;;;;;;16.16;79.30;100073.28;5039687;28;20056;-72
2021/08/09 07:11:36;;;;;;;5.03;1.55;;;;;;;16.28;78.68;100072.22;5057027;28;20107;-71
2021/08/09 07:14:03;;;;;;;3.15;1.52;;;;;;;16.28;79.61;100082.13;5063061;28;20049;-71
2021/08/09 07:16:30;;;;;;;6.43;1.40;;;;;;;16.38;79.48;100083.03;5039690;28;20048;-69
2021/08/09 07:18:57;;;;;;;5.70;1.70;;;;;;;16.48;79.13;100082.22;5040871;28;20056;-69
2021/08/09 07:21:24;;;;;;;7.05;2.22;;;;;;;16.66;79.13;100080.63;5059439;28;20057;-68
2021/08/09 07:23:51;;;;;;;3.25;1.42;;;;;;;16.89;77.46;100080.41;5062262;28;20079;-66
2021/08/09 07:26:18;;;;;;;2.95;1.38;;;;;;;16.86;75.58;100071.75;5055697;28;20650;-68
2021/08/09 07:28:45;;;;;;;5.22;1.20;;;;;;;17.00;76.19;100075.91;5055353;28;20041;-69
2021/08/09 07:31:11;;;;;;;6.22;1.65;;;;;;;17.03;75.28;100075.66;5036318;28;20045;-69
2021/08/09 07:33:38;;;;;;;3.35;1.20;;;;;;;17.05;74.62;100081.78;5056023;28;20048;-67
2021/08/09 07:36:06;;;;;;;6.50;2.25;;;;;;;17.01;73.89;100077.63;5057314;28;20085;-70
2021/08/09 07:38:33;;;;;;;5.57;1.33;;;;;;;17.08;75.61;100078.78;5059718;28;20049;-67
2021/08/09 07:41:00;;;;;;;7.63;1.58;;;;;;;17.15;74.87;100081.81;5056029;28;20144;-66
2021/08/09 07:43:27;;;;;;;5.15;1.70;;;;;;;17.21;75.71;100083.94;5038381;28;20037;-67
2021/08/09 07:45:53;;;;;;;5.55;1.50;;;;;;;17.29;75.03;100078.72;5054881;28;20052;-69
2021/08/09 07:48:20;;;;;;;5.03;1.55;;;;;;;17.31;74.46;100075.84;5056269;28;20045;-68
2021/08/09 07:50:47;;;;;;;5.30;1.20;;;;;;;17.38;74.80;100082.41;5061456;28;20049;-70
2021/08/09 07:53:14;;;;;;;9.23;1.95;;;;;;;17.35;72.95;100079.97;5057273;28;20059;-68
2021/08/09 07:55:41;;;;;;;6.13;1.38;;;;;;;17.37;72.83;100075.28;5038476;28;20041;-67
2021/08/09 07:58:07;;;;;;;4.13;1.30;;;;;;;17.29;73.13;100075.16;5060442;28;20048;-68
2021/08/09 08:00:34;;;;;;;6.65;1.30;;;;;;;17.33;72.57;100079.28;5037977;28;20067;-68
2021/08/09 08:03:01;;;;;;;6.38;1.80;;;;;;;17.34;73.99;100078.28;5038154;28;20122;-71
2021/08/09 08:05:28;;;;;;;8.77;1.60;;;;;;;17.40;73.34;100076.84;5062000;28;20049;-71
2021/08/09 08:07:54;;;;;;;5.03;1.80;;;;;;;17.47;73.74;100081.56;5062473;28;20422;-71
2021/08/09 08:10:22;;;;;;;7.10;1.83;;;;;;;17.53;74.21;100082.00;5056326;28;20049;-69
2021/08/09 08:12:48;;;;;;;5.97;1.40;;;;;;;17.54;73.03;100076.44;5055504;28;20045;-70
2021/08/09 08:15:15;;;;;;;14.45;1.85;;;;;;;17.49;72.79;100079.56;5038040;28;20049;-71
2021/08/09 08:17:43;;;;;;;4.80;1.48;;;;;;;17.53;72.84;100074.75;5055594;28;20136;-73
2021/08/09 08:20:10;;;;;;;6.60;1.83;;;;;;;17.62;72.29;100082.00;5038518;28;20049;-71
2021/08/09 08:22:37;;;;;;;5.32;1.38;;;;;;;17.65;70.82;100076.31;5059070;28;20049;-75
2021/08/09 08:25:04;;;;;;;9.27;1.80;;;;;;;17.74;72.26;100082.72;5054936;28;20133;-70
2021/08/09 08:27:33;;;;;;;5.75;1.38;;;;;;;17.81;71.98;100076.75;5055266;28;20085;-74
2021/08/09 08:30:00;;;;;;;7.28;1.38;;;;;;;17.93;71.29;100083.69;5045821;28;20053;-73
2021/08/09 08:32:47;;;;;;;5.05;1.08;;;;;;;18.03;71.24;100073.72;5056594;28;20450;-70
2021/08/09 08:35:14;;;;;;;8.68;1.67;;;;;;;18.27;69.95;100063.47;5038154;28;20045;-69
2021/08/09 08:37:40;;;;;;;4.72;1.20;;;;;;;18.49;71.00;100078.47;5018859;28;20045;-69
2021/08/09 08:40:08;;;;;;;5.20;1.45;;;;;;;18.68;67.82;100076.72;5054948;28;20072;-72
2021/08/09 08:42:34;;;;;;;10.20;1.77;;;;;;;18.69;68.73;100075.72;5055018;28;20049;-70
2021/08/09 08:45:03;;;;;;;6.60;1.52;;;;;;;18.74;67.69;100076.09;5054356;28;20094;-68
2021/08/09 08:47:31;;;;;;;4.90;1.50;;;;;;;18.76;66.14;100078.66;5054835;28;20608;-68
2021/08/09 08:50:00;;;;;;;5.10;1.40;;;;;;;18.49;66.07;100080.31;5060340;28;20098;-67
2021/08/09 08:52:27;;;;;;;5.25;1.50;;;;;;;18.47;66.09;100094.00;5054822;28;20123;-74
2021/08/09 08:54:53;;;;;;;5.45;1.33;;;;;;;18.41;66.50;100083.78;5038286;28;20431;-70
2021/08/09 08:57:22;;;;;;;3.67;1.15;;;;;;;18.32;65.69;100083.63;5055987;28;20432;-72
2021/08/09 08:59:49;;;;;;;5.25;1.45;;;;;;;18.36;65.86;100080.66;5059941;28;20539;-69
2021/08/09 09:02:36;;;;;;;8.63;2.05;;;;;;;18.44;66.98;100081.63;5056602;28;20052;-71
2021/08/09 09:05:17;;;;;;;2.45;1.20;;;;;;;18.30;65.90;100064.03;5058955;28;20053;-71
2021/08/09 09:07:46;;;;;;;4.38;1.30;;;;;;;18.43;65.69;100095.28;5048742;28;20045;-71
2021/08/09 09:10:21;;;;;;;7.10;1.35;;;;;;;18.35;66.25;100093.31;5056516;28;20052;-70
2021/08/09 09:13:09;;;;;;;6.47;1.80;;;;;;;18.27;66.60;100102.16;5051947;28;20040;-71
2021/08/09 09:16:00;;;;;;;6.40;1.48;;;;;;;18.29;65.99;100110.09;5052859;28;20076;-70
2021/08/09 09:19:07;;;;;;;6.18;1.40;;;;;;;18.26;68.12;100111.22;5054683;28;20068;-67
2021/08/09 09:21:36;;;;;;;6.20;1.15;;;;;;;18.26;66.26;100116.63;5048872;28;20041;-73
2021/08/09 09:24:14;;;;;;;7.32;1.20;;;;;;;18.29;67.95;100115.50;5054175;28;20102;-69
2021/08/09 09:26:43;;;;;;;6.25;1.95;;;;;;;18.44;67.77;100124.00;5057307;28;20084;-69
2021/08/09 09:29:11;;;;;;;4.38;1.42;;;;;;;18.69;67.84;100118.97;5041690;28;20049;-68
2021/08/09 09:31:40;;;;;;;5.60;1.30;;;;;;;18.78;67.59;100115.34;5054235;28;20049;-68
2021/08/09 09:34:12;;;;;;;5.43;1.83;;;;;;;18.95;67.41;100121.00;5066593;28;20053;-72
2021/08/09 09:36:45;;;;;;;4.88;1.70;;;;;;;18.91;66.83;100125.81;5049472;28;20052;-69
2021/08/09 09:39:34;;;;;;;4.25;1.40;;;;;;;18.80;66.01;100123.31;5062444;28;20102;-69
2021/08/09 09:42:12;;;;;;;6.35;1.85;;;;;;;18.64;66.30;100118.53;5054315;28;20106;-70
2021/08/09 09:44:40;;;;;;;6.60;1.27;;;;;;;18.62;66.43;100112.44;5054342;28;20500;-69
2021/08/09 09:47:25;;;;;;;7.97;1.52;;;;;;;18.91;66.06;100127.69;5058432;28;20053;-68
2021/08/09 09:49:59;;;;;;;4.10;1.38;;;;;;;19.18;66.47;100118.75;5036409;28;20107;-69
2021/08/09 09:52:35;;;;;;;7.45;1.60;;;;;;;19.32;65.68;100127.34;5058157;28;20565;-71
2021/08/09 09:55:14;;;;;;;4.00;1.40;;;;;;;19.47;64.50;100123.16;5061720;28;20081;-67
2021/08/09 09:57:43;;;;;;;7.95;1.70;;;;;;;19.65;64.54;100128.56;5057854;28;20106;-68
2021/08/09 10:00:17;;;;;;;5.35;1.45;;;;;;;19.76;61.24;100121.22;5063878;28;20049;-68
2021/08/09 10:02:46;;;;;;;4.85;1.45;;;;;;;20.05;62.20;100121.00;5056752;28;20175;-67
2021/08/09 10:05:14;;;;;;;6.68;1.48;;;;;;;20.16;61.28;100124.47;5064847;28;20063;-67
2021/08/09 10:07:46;;;;;;;6.55;1.30;;;;;;;20.37;61.91;100121.38;5057132;28;20051;-66
2021/08/09 10:10:13;;;;;;;4.13;1.50;;;;;;;20.46;59.62;100119.59;5056391;28;20049;-67
2021/08/09 10:12:41;;;;;;;4.07;1.08;;;;;;;20.52;59.89;100128.97;5056932;28;20074;-65
2021/08/09 10:15:09;;;;;;;6.28;1.58;;;;;;;20.79;59.05;100129.75;5058655;28;20099;-67
2021/08/09 10:17:37;;;;;;;6.18;1.50;;;;;;;21.00;58.88;100119.41;5056418;28;20064;-67
2021/08/09 10:20:07;;;;;;;6.53;1.90;;;;;;;20.77;58.13;100125.34;5044433;28;20052;-66
2021/08/09 10:22:34;;;;;;;;;;;;;;;20.81;57.66;100122.34;5061836;28;20048;-67
2021/08/09 10:25:02;;;;;;;4.03;1.45;;;;;;;21.01;58.89;100123.81;5055604;28;19947;-67
2021/08/09 10:27:47;;;;;;;4.47;1.08;;;;;;;20.98;57.50;100124.13;5056389;28;20464;-66
2021/08/09 10:30:22;;;;;;;4.60;1.02;;;;;;;20.79;56.62;100118.91;5056783;28;20061;-66
2021/08/09 10:32:57;;;;;;;6.07;1.50;;;;;;;20.45;56.95;100129.59;5055483;28;20458;-68
2021/08/09 10:35:32;;;;;;;4.80;1.58;;;;;;;20.37;58.41;100137.66;5053754;28;20044;-68
2021/08/09 10:38:23;;;;;;;4.15;1.58;;;;;;;20.47;59.28;100122.16;5056273;28;20048;-67
2021/08/09 10:41:08;;;;;;;5.78;1.63;;;;;;;20.61;57.78;100123.41;5055918;28;20425;-69
2021/08/09 10:44:04;;;;;;;5.05;1.27;;;;;;;20.57;55.56;100129.31;5039333;28;20405;-72
2021/08/09 10:46:33;;;;;;;3.80;1.02;;;;;;;20.64;57.76;100141.22;5065293;28;20079;-70
2021/08/09 10:49:07;;;;;;;10.57;1.23;;;;;;;20.84;55.20;100127.47;5062952;28;20048;-73
2021/08/09 10:51:52;;;;;;;3.85;1.15;;;;;;;21.09;54.23;100124.88;5059819;28;20049;-68
2021/08/09 10:54:29;;;;;;;6.05;1.13;;;;;;;21.28;56.53;100130.03;5056861;28;20069;-68
2021/08/09 10:56:57;;;;;;;4.28;1.20;;;;;;;20.98;56.80;100132.28;5044415;28;20048;-69
2021/08/09 10:59:49;;;;;;;4.20;1.20;;;;;;;20.81;54.95;100139.44;5066123;28;20107;-70
2021/08/09 11:02:21;;;;;;;4.35;1.20;;;;;;;20.74;55.71;100138.41;5060021;28;20434;-70
2021/08/09 11:05:13;;;;;;;2.55;1.27;;;;;;;20.98;56.85;100140.41;5055418;28;20323;-69
2021/08/09 11:07:43;;;;;;;6.80;1.55;;;;;;;21.27;56.03;100132.91;5063024;28;20136;-73
2021/08/09 11:10:10;;;;;;;1.90;0.90;;;;;;;21.02;54.02;100132.78;5037655;28;20130;-68
2021/08/09 11:13:00;;;;;;;2.67;1.30;;;;;;;20.48;55.02;100142.81;5056929;28;20049;-68
2021/08/09 11:15:27;;;;;;;6.07;1.23;;;;;;;20.41;55.95;100147.19;5052858;28;20127;-68
2021/08/09 11:17:58;;;;;;;8.73;1.20;;;;;;;20.47;56.29;100149.25;5055603;28;20049;-68
2021/08/09 11:20:33;;;;;;;3.55;1.02;;;;;;;20.81;56.06;100136.72;5055778;28;20073;-68
2021/08/09 11:23:10;;;;;;;8.20;1.02;;;;;;;21.23;55.97;100143.25;5039645;28;20053;-69
2021/08/09 11:25:48;;;;;;;3.30;1.40;;;;;;;20.92;55.49;100135.63;5039490;28;20049;-68
2021/08/09 11:28:17;;;;;;;4.50;1.35;;;;;;;20.83;55.34;100142.88;5057159;28;20076;-68
2021/08/09 11:30:47;;;;;;;3.70;1.55;;;;;;;20.74;55.88;100127.53;5039979;28;20049;-68
2021/08/09 11:33:34;;;;;;;7.15;1.10;;;;;;;20.69;56.71;100143.47;5056908;28;20099;-68
2021/08/09 11:36:09;;;;;;;2.90;1.20;;;;;;;20.47;56.86;100140.25;5057349;28;20111;-68
2021/08/09 11:38:43;;;;;;;2.70;1.20;;;;;;;20.42;57.04;100131.78;5056967;28;20052;-68
2021/08/09 11:41:11;;;;;;;4.03;1.50;;;;;;;20.50;57.84;100139.97;5056884;28;20167;-68